createdAt,value
2022-11-06T00:00:32.501Z,52.40
2022-11-06T00:03:00.878Z,52.97
2022-11-06T00:05:47.339Z,53.47
2022-11-06T00:08:16.273Z,55.40
2022-11-06T00:10:44.469Z,55.27
2022-11-06T00:13:13.957Z,55.70
2022-11-06T00:15:41.987Z,55.27
2022-11-06T00:18:10.181Z,55.90
2022-11-06T00:20:38.766Z,55.53
2022-11-06T00:23:06.900Z,56.17
2022-11-06T00:25:35.018Z,57.43
2022-11-06T00:28:03.079Z,57.40
2022-11-06T00:30:32.593Z,58.33
2022-11-06T00:33:00.682Z,56.60
2022-11-06T00:35:28.685Z,58.20
2022-11-06T00:37:57.321Z,56.40
2022-11-06T00:40:25.307Z,58.00
2022-11-06T00:42:57.791Z,56.60
2022-11-06T00:45:25.987Z,58.90
2022-11-06T00:47:55.329Z,58.40
2022-11-06T00:50:26.538Z,58.30
2022-11-06T00:52:55.783Z,57.87
2022-11-06T00:55:23.844Z,58.60
2022-11-06T00:57:52.316Z,60.13
2022-11-06T01:00:20.587Z,58.43
2022-11-06T01:02:48.739Z,58.50
2022-11-06T01:05:18.515Z,58.73
2022-11-06T01:07:46.598Z,58.63
2022-11-06T01:10:15.260Z,58.93
2022-11-06T01:12:43.277Z,58.53
2022-11-06T01:15:11.926Z,58.57
2022-11-06T01:17:39.927Z,58.07
2022-11-06T01:20:09.052Z,57.50
2022-11-06T01:22:38.547Z,56.57
2022-11-06T01:25:07.892Z,56.40
2022-11-06T01:27:35.910Z,56.63
2022-11-06T01:30:04.318Z,56.00
2022-11-06T01:32:32.320Z,54.33
2022-11-06T01:35:00.462Z,54.13
2022-11-06T01:37:28.460Z,54.13
2022-11-06T01:39:57.883Z,54.93
2022-11-06T01:42:25.895Z,54.67
2022-11-06T01:45:35.310Z,52.97
2022-11-06T01:48:04.393Z,52.27
2022-11-06T01:50:32.613Z,53.40
2022-11-06T01:53:02.559Z,54.00
2022-11-06T01:55:36.005Z,51.57
2022-11-06T01:58:06.604Z,52.50
2022-11-06T02:00:35.493Z,50.17
2022-11-06T02:03:04.315Z,50.83
2022-11-06T02:05:32.619Z,50.60
2022-11-06T02:08:02.087Z,50.90
2022-11-06T02:10:31.777Z,50.93
2022-11-06T02:13:16.917Z,50.20
2022-11-06T02:15:51.235Z,50.70
2022-11-06T02:18:42.008Z,48.93
2022-11-06T02:21:36.652Z,49.30
2022-11-06T02:24:31.015Z,50.47
2022-11-06T02:27:10.367Z,49.30
2022-11-06T02:29:46.936Z,49.63
2022-11-06T02:32:20.045Z,48.57
2022-11-06T02:34:50.457Z,48.13
2022-11-06T02:37:25.163Z,47.70
2022-11-06T02:39:55.926Z,47.30
2022-11-06T02:42:29.529Z,46.67
2022-11-06T02:44:59.565Z,47.37
2022-11-06T02:47:31.437Z,48.13
2022-11-06T02:50:05.886Z,47.37
2022-11-06T02:52:38.637Z,48.97
2022-11-06T02:55:12.422Z,47.93
2022-11-06T02:57:47.021Z,49.03
2022-11-06T03:00:17.755Z,49.00
2022-11-06T03:02:51.365Z,49.63
2022-11-06T03:05:25.401Z,49.17
2022-11-06T03:07:58.253Z,48.80
2022-11-06T03:10:31.078Z,50.47
2022-11-06T03:13:07.215Z,50.00
2022-11-06T03:15:41.202Z,49.40
2022-11-06T03:18:16.737Z,49.57
2022-11-06T03:20:55.592Z,49.53
2022-11-06T03:23:29.489Z,50.90
2022-11-06T03:26:04.336Z,51.43
2022-11-06T03:28:37.738Z,52.17
2022-11-06T03:31:12.207Z,52.80
2022-11-06T03:33:44.193Z,50.53
2022-11-06T03:36:18.349Z,50.53
2022-11-06T03:38:49.935Z,51.30
2022-11-06T03:41:23.733Z,51.50
2022-11-06T03:43:56.723Z,50.47
2022-11-06T03:46:27.863Z,49.13
2022-11-06T03:48:59.802Z,50.57
2022-11-06T03:51:33.440Z,49.33
2022-11-06T03:54:06.064Z,47.90
2022-11-06T03:56:41.761Z,48.93
2022-11-06T03:59:15.202Z,48.67
2022-11-06T04:01:47.851Z,48.40
2022-11-06T04:04:23.047Z,49.07
2022-11-06T04:06:54.705Z,48.30
2022-11-06T04:09:44.892Z,47.57
2022-11-06T04:12:33.856Z,47.90
2022-11-06T04:15:03.897Z,48.90
2022-11-06T04:17:32.638Z,48.83
2022-11-06T04:20:03.929Z,49.63
2022-11-06T04:22:43.766Z,49.03
2022-11-06T04:25:50.042Z,47.37
2022-11-06T04:28:31.143Z,49.60
2022-11-06T04:31:11.387Z,50.37
2022-11-06T04:33:46.860Z,49.10
2022-11-06T04:36:23.644Z,47.73
2022-11-06T04:39:02.293Z,46.40
2022-11-06T04:41:37.682Z,46.50
2022-11-06T04:44:10.246Z,45.90
2022-11-06T04:46:46.328Z,47.30
2022-11-06T04:49:15.536Z,47.83
2022-11-06T04:51:47.134Z,45.23
2022-11-06T04:54:16.211Z,46.10
2022-11-06T04:56:46.312Z,46.13
2022-11-06T04:59:17.612Z,44.40
2022-11-06T05:01:47.541Z,43.90
2022-11-06T05:04:16.631Z,44.97
2022-11-06T05:06:44.765Z,44.57
2022-11-06T05:09:13.025Z,43.97
2022-11-06T05:11:41.023Z,42.80
2022-11-06T05:14:09.038Z,42.13
2022-11-06T05:16:37.043Z,41.50
2022-11-06T05:19:06.557Z,41.10
2022-11-06T05:21:51.985Z,40.50
2022-11-06T05:24:19.947Z,41.10
2022-11-06T05:26:48.122Z,40.70
2022-11-06T05:29:16.340Z,41.43
2022-11-06T05:31:44.323Z,40.27
2022-11-06T05:34:13.770Z,41.90
2022-11-06T05:36:41.734Z,41.93
2022-11-06T05:39:10.085Z,42.07
2022-11-06T05:41:38.209Z,42.23
2022-11-06T05:44:06.473Z,43.37
2022-11-06T05:46:50.314Z,43.17
2022-11-06T05:49:20.415Z,43.83
2022-11-06T05:51:48.441Z,43.67
2022-11-06T05:54:16.593Z,43.03
2022-11-06T05:56:44.556Z,42.03
2022-11-06T05:59:13.143Z,41.73
2022-11-06T06:01:41.235Z,40.53
2022-11-06T06:04:09.334Z,40.73
2022-11-06T06:06:39.517Z,40.03
2022-11-06T06:09:07.504Z,40.93
2022-11-06T06:11:35.673Z,40.77
2022-11-06T06:14:03.688Z,41.77
2022-11-06T06:16:32.102Z,39.83
2022-11-06T06:19:00.110Z,41.70
2022-11-06T06:21:28.111Z,40.40
2022-11-06T06:23:57.471Z,40.00
2022-11-06T06:26:25.589Z,40.63
2022-11-06T06:28:53.549Z,40.27
2022-11-06T06:31:21.977Z,40.80
2022-11-06T06:33:50.242Z,41.60
2022-11-06T06:36:18.475Z,40.33
2022-11-06T06:38:46.480Z,39.53
2022-11-06T06:41:15.866Z,39.37
2022-11-06T06:43:43.853Z,39.20
2022-11-06T06:46:11.993Z,38.70
2022-11-06T06:48:40.011Z,38.00
2022-11-06T06:51:08.971Z,37.47
2022-11-06T06:53:37.702Z,38.07
2022-11-06T06:56:06.037Z,38.63
2022-11-06T06:58:35.408Z,39.03
2022-11-06T07:01:05.273Z,38.53
2022-11-06T07:03:33.954Z,39.17
2022-11-06T07:06:01.980Z,38.43
2022-11-06T07:08:30.875Z,36.10
2022-11-06T07:11:02.305Z,37.17
2022-11-06T07:13:35.385Z,35.50
2022-11-06T07:16:06.216Z,36.60
2022-11-06T07:18:34.414Z,36.13
2022-11-06T07:21:02.413Z,35.27
2022-11-06T07:23:30.348Z,36.07
2022-11-06T07:25:58.370Z,35.97
2022-11-06T07:28:26.615Z,34.77
2022-11-06T07:30:58.524Z,35.07
2022-11-06T07:33:28.090Z,33.43
2022-11-06T07:35:56.323Z,32.67
2022-11-06T07:38:24.325Z,32.00
2022-11-06T07:40:52.288Z,31.83
2022-11-06T07:43:20.225Z,31.87
2022-11-06T07:45:48.217Z,32.77
2022-11-06T07:48:16.516Z,31.33
2022-11-06T07:50:46.169Z,31.80
2022-11-06T07:53:14.473Z,30.60
2022-11-06T07:55:49.506Z,29.50
2022-11-06T07:58:17.812Z,29.90
2022-11-06T08:00:48.787Z,29.70
2022-11-06T08:03:17.504Z,30.17
2022-11-06T08:05:47.552Z,29.63
2022-11-06T08:08:15.954Z,30.23
2022-11-06T08:10:44.707Z,30.50
2022-11-06T08:13:13.810Z,30.10
2022-11-06T08:15:42.829Z,29.43
2022-11-06T08:18:12.485Z,30.53
2022-11-06T08:20:41.423Z,29.53
2022-11-06T08:23:14.025Z,29.33
2022-11-06T08:25:42.087Z,30.20
2022-11-06T08:28:11.417Z,29.27
2022-11-06T08:30:39.907Z,29.80
2022-11-06T08:33:09.412Z,28.83
2022-11-06T08:35:37.786Z,28.20
2022-11-06T08:38:05.856Z,26.97
2022-11-06T08:40:37.511Z,27.03
2022-11-06T08:43:07.136Z,27.10
2022-11-06T08:45:38.525Z,26.80
2022-11-06T08:48:07.217Z,27.00
2022-11-06T08:50:37.172Z,26.03
2022-11-06T08:53:06.953Z,24.87
2022-11-06T08:55:38.169Z,23.43
2022-11-06T08:58:07.179Z,23.40
2022-11-06T09:00:36.943Z,23.30
2022-11-06T09:03:07.690Z,22.43
2022-11-06T09:05:35.680Z,22.30
2022-11-06T09:08:03.661Z,24.47
2022-11-06T09:10:31.640Z,24.23
2022-11-06T09:13:01.169Z,23.27
2022-11-06T09:15:29.263Z,23.23
2022-11-06T09:17:57.389Z,25.10
2022-11-06T09:20:27.049Z,22.20
2022-11-06T09:22:55.540Z,22.30
2022-11-06T09:25:23.461Z,21.40
2022-11-06T09:27:58.858Z,21.50
2022-11-06T09:30:30.457Z,21.50
2022-11-06T09:33:00.451Z,22.27
2022-11-06T09:35:29.926Z,20.23
2022-11-06T09:38:03.178Z,20.00
2022-11-06T09:40:35.289Z,20.10
2022-11-06T09:43:16.179Z,19.87
2022-11-06T09:45:53.704Z,20.63
2022-11-06T09:48:28.846Z,20.57
2022-11-06T09:51:01.959Z,21.10
2022-11-06T09:53:35.739Z,19.47
2022-11-06T09:56:06.474Z,20.00
2022-11-06T09:58:38.654Z,20.90
2022-11-06T10:01:22.033Z,19.70
2022-11-06T10:03:57.805Z,21.77
2022-11-06T10:06:27.260Z,21.40
2022-11-06T10:08:58.437Z,19.97
2022-11-06T10:11:49.875Z,21.43
2022-11-06T10:14:29.105Z,20.30
2022-11-06T10:17:05.235Z,18.73
2022-11-06T10:19:41.468Z,17.27
2022-11-06T10:22:16.296Z,18.47
2022-11-06T10:24:47.729Z,19.40
2022-11-06T10:27:18.333Z,20.70
2022-11-06T10:30:04.673Z,19.83
2022-11-06T10:33:08.939Z,20.07
2022-11-06T10:35:39.782Z,21.30
2022-11-06T10:38:12.350Z,20.90
2022-11-06T10:40:41.163Z,21.57
2022-11-06T10:43:23.253Z,22.90
2022-11-06T10:45:56.029Z,20.20
2022-11-06T10:48:31.046Z,20.93
2022-11-06T10:51:19.718Z,19.50
2022-11-06T10:53:57.849Z,21.57
2022-11-06T10:56:51.320Z,21.47
2022-11-06T10:59:19.766Z,21.67
2022-11-06T11:01:47.951Z,20.90
2022-11-06T11:04:17.401Z,21.87
2022-11-06T11:06:45.330Z,20.87
2022-11-06T11:09:29.752Z,20.90
2022-11-06T11:11:58.086Z,21.40
2022-11-06T11:14:27.568Z,21.13
2022-11-06T11:16:56.974Z,20.47
2022-11-06T11:19:34.410Z,19.30
2022-11-06T11:22:05.265Z,19.10
2022-11-06T11:24:33.686Z,20.20
2022-11-06T11:27:04.789Z,21.67
2022-11-06T11:29:35.330Z,20.10
2022-11-06T11:32:07.068Z,19.23
2022-11-06T11:34:49.147Z,21.83
2022-11-06T11:37:27.282Z,21.63
2022-11-06T11:39:55.894Z,20.33
2022-11-06T11:42:29.774Z,18.80
2022-11-06T11:45:16.227Z,21.27
2022-11-06T11:47:47.305Z,20.40
2022-11-06T11:50:30.135Z,20.70
2022-11-06T11:53:07.135Z,19.03
2022-11-06T11:55:41.704Z,20.53
2022-11-06T11:58:21.277Z,21.00
2022-11-06T12:00:56.850Z,20.93
2022-11-06T12:03:28.496Z,19.40
2022-11-06T12:06:06.768Z,18.90
2022-11-06T12:08:35.087Z,19.70
2022-11-06T12:11:05.454Z,17.67
2022-11-06T12:13:33.629Z,18.00
2022-11-06T12:16:04.627Z,17.53
2022-11-06T12:18:36.202Z,18.30
2022-11-06T12:21:08.119Z,19.10
2022-11-06T12:23:50.098Z,19.20
2022-11-06T12:26:28.277Z,18.37
2022-11-06T12:29:04.990Z,19.53
2022-11-06T12:31:38.790Z,18.93
2022-11-06T12:34:17.257Z,17.90
2022-11-06T12:37:11.909Z,19.00
2022-11-06T12:39:44.173Z,19.20
2022-11-06T12:42:14.645Z,20.37
2022-11-06T12:44:42.806Z,21.07
2022-11-06T12:47:26.440Z,21.73
2022-11-06T12:50:13.793Z,21.47
2022-11-06T12:53:06.047Z,20.53
2022-11-06T12:55:38.886Z,21.77
2022-11-06T12:58:27.272Z,22.33
2022-11-06T13:01:04.238Z,23.00
2022-11-06T13:03:57.363Z,22.53
2022-11-06T13:06:34.826Z,22.40
2022-11-06T13:09:12.519Z,24.70
2022-11-06T13:11:47.022Z,24.40
2022-11-06T13:14:22.514Z,24.87
2022-11-06T13:17:01.075Z,25.23
2022-11-06T13:19:35.732Z,26.17
2022-11-06T13:22:18.012Z,25.93
2022-11-06T13:24:57.331Z,26.80
2022-11-06T13:27:32.449Z,26.50
2022-11-06T13:30:05.495Z,26.00
2022-11-06T13:32:37.353Z,27.13
2022-11-06T13:35:06.571Z,25.80
2022-11-06T13:37:40.412Z,23.63
2022-11-06T13:40:21.558Z,23.27
2022-11-06T13:42:54.766Z,23.30
2022-11-06T13:45:24.233Z,21.73
2022-11-06T13:48:06.569Z,21.07
2022-11-06T13:50:44.066Z,19.93
2022-11-06T13:53:22.165Z,20.77
2022-11-06T13:56:04.827Z,19.57
2022-11-06T13:58:54.596Z,21.10
2022-11-06T14:01:41.229Z,20.23
2022-11-06T14:04:49.631Z,20.10
2022-11-06T14:07:21.922Z,22.10
2022-11-06T14:09:50.495Z,21.87
2022-11-06T14:12:23.204Z,21.63
2022-11-06T14:14:56.258Z,20.90
2022-11-06T14:17:25.776Z,21.30
2022-11-06T14:20:07.685Z,21.73
2022-11-06T14:22:37.525Z,23.90
2022-11-06T14:25:38.613Z,25.90
2022-11-06T14:28:08.300Z,22.07
2022-11-06T14:31:11.055Z,20.37
2022-11-06T14:33:59.974Z,21.33
2022-11-06T14:36:36.349Z,20.77
2022-11-06T14:39:10.567Z,20.20
2022-11-06T14:41:58.030Z,19.80
2022-11-06T14:44:35.796Z,20.87
2022-11-06T14:47:08.003Z,20.20
2022-11-06T14:49:41.864Z,23.97
2022-11-06T14:52:13.307Z,22.93
2022-11-06T14:54:50.535Z,22.83
2022-11-06T14:57:34.969Z,21.90
2022-11-06T15:00:06.010Z,23.50
2022-11-06T15:02:37.421Z,23.37
2022-11-06T15:05:09.256Z,21.93
2022-11-06T15:08:10.405Z,20.67
2022-11-06T15:10:55.449Z,20.23
2022-11-06T15:13:33.941Z,20.10
2022-11-06T15:16:22.476Z,18.07
2022-11-06T15:18:52.407Z,18.93
2022-11-06T15:21:25.759Z,18.47
2022-11-06T15:24:05.409Z,18.97
2022-11-06T15:26:37.525Z,19.13
2022-11-06T15:29:18.242Z,19.47
2022-11-06T15:31:50.623Z,17.57
2022-11-06T15:34:24.941Z,17.60
2022-11-06T15:36:59.171Z,16.03
2022-11-06T15:39:39.262Z,14.40
2022-11-06T15:42:10.073Z,14.23
2022-11-06T15:44:41.445Z,14.77
2022-11-06T15:47:22.116Z,14.93
2022-11-06T15:49:50.303Z,15.87
2022-11-06T15:52:19.658Z,15.80
2022-11-06T15:54:49.275Z,15.30
2022-11-06T15:57:20.822Z,15.73
2022-11-06T15:59:49.102Z,14.93
2022-11-06T16:02:22.545Z,16.20
2022-11-06T16:04:51.350Z,16.90
2022-11-06T16:07:20.795Z,16.53
2022-11-06T16:09:51.606Z,16.53
2022-11-06T16:12:20.442Z,16.67
2022-11-06T16:14:48.448Z,17.60
2022-11-06T16:17:23.811Z,16.87
2022-11-06T16:19:53.549Z,17.53
2022-11-06T16:22:29.676Z,18.03
2022-11-06T16:25:01.854Z,19.00
2022-11-06T16:27:35.718Z,20.07
2022-11-06T16:30:04.941Z,21.47
2022-11-06T16:32:40.510Z,22.83
2022-11-06T16:35:33.119Z,21.67
2022-11-06T16:38:41.428Z,21.03
2022-11-06T16:41:36.254Z,21.57
2022-11-06T16:44:29.686Z,20.87
2022-11-06T16:47:15.404Z,21.67
2022-11-06T16:49:52.692Z,24.57
2022-11-06T16:52:26.551Z,22.07
2022-11-06T16:54:57.715Z,21.53
2022-11-06T16:57:28.850Z,22.13
2022-11-06T16:59:59.898Z,23.60
2022-11-06T17:02:32.180Z,20.90
2022-11-06T17:05:16.921Z,21.80
2022-11-06T17:07:46.415Z,21.33
2022-11-06T17:10:36.464Z,22.27
2022-11-06T17:13:25.676Z,21.80
2022-11-06T17:15:57.655Z,22.23
2022-11-06T17:18:27.842Z,22.00
2022-11-06T17:20:59.082Z,22.57
2022-11-06T17:23:29.253Z,22.30
2022-11-06T17:26:00.618Z,23.03
2022-11-06T17:28:29.314Z,23.13
2022-11-06T17:30:57.889Z,24.33
2022-11-06T17:33:25.929Z,24.00
2022-11-06T17:35:54.490Z,23.90
2022-11-06T17:38:27.070Z,23.43
2022-11-06T17:40:55.067Z,25.20
2022-11-06T17:43:24.969Z,24.67
2022-11-06T17:45:54.786Z,24.97
2022-11-06T17:48:23.104Z,26.23
2022-11-06T17:51:08.355Z,25.33
2022-11-06T17:53:37.733Z,25.87
2022-11-06T17:56:06.513Z,26.00
2022-11-06T17:58:35.447Z,28.03
2022-11-06T18:01:08.881Z,29.23
2022-11-06T18:03:43.076Z,28.13
2022-11-06T18:06:11.751Z,27.70
2022-11-06T18:08:41.111Z,29.30
2022-11-06T18:11:10.212Z,29.10
2022-11-06T18:13:39.223Z,28.97
2022-11-06T18:16:16.223Z,30.20
2022-11-06T18:18:44.527Z,30.03
2022-11-06T18:21:12.587Z,31.60
2022-11-06T18:23:41.917Z,31.47
2022-11-06T18:26:09.946Z,32.20
2022-11-06T18:28:38.001Z,32.37
2022-11-06T18:31:06.427Z,31.97
2022-11-06T18:33:34.752Z,31.70
2022-11-06T18:36:03.146Z,33.60
2022-11-06T18:38:31.413Z,32.80
2022-11-06T18:41:00.832Z,32.67
2022-11-06T18:43:28.850Z,32.80
2022-11-06T18:45:56.920Z,33.93
2022-11-06T18:48:25.248Z,33.57
2022-11-06T18:50:53.437Z,34.83
2022-11-06T18:53:22.755Z,34.47
2022-11-06T18:55:50.728Z,35.53
2022-11-06T18:58:20.216Z,35.43
2022-11-06T19:00:48.197Z,37.13
2022-11-06T19:03:16.197Z,35.70
2022-11-06T19:05:48.175Z,37.67
2022-11-06T19:08:16.659Z,38.27
2022-11-06T19:10:44.803Z,37.80
2022-11-06T19:13:12.936Z,38.37
2022-11-06T19:15:42.952Z,39.37
2022-11-06T19:18:11.693Z,40.53
2022-11-06T19:20:41.318Z,40.63
2022-11-06T19:23:09.898Z,43.70
2022-11-06T19:25:41.127Z,44.77
2022-11-06T19:28:09.562Z,43.60
2022-11-06T19:30:37.903Z,43.50
2022-11-06T19:33:07.309Z,44.80
2022-11-06T19:35:35.499Z,46.07
2022-11-06T19:38:03.800Z,47.57
2022-11-06T19:40:32.650Z,46.97
2022-11-06T19:43:03.845Z,46.93
2022-11-06T19:45:31.867Z,46.60
2022-11-06T19:48:01.090Z,50.43
2022-11-06T19:50:58.103Z,51.13
2022-11-06T19:53:20.061Z,56.07
2022-11-06T19:55:48.808Z,51.53
2022-11-06T19:58:18.431Z,49.17
2022-11-06T20:00:48.526Z,50.47
2022-11-06T20:03:17.555Z,49.70
2022-11-06T20:05:47.484Z,49.93
2022-11-06T20:08:15.867Z,50.40
2022-11-06T20:10:43.887Z,51.90
2022-11-06T20:13:12.168Z,53.43
2022-11-06T20:15:40.784Z,53.43
2022-11-06T20:18:09.436Z,55.00
2022-11-06T20:20:37.687Z,55.80
2022-11-06T20:23:07.014Z,56.97
2022-11-06T20:25:34.969Z,58.10
2022-11-06T20:28:03.010Z,57.70
2022-11-06T20:30:31.056Z,60.63
2022-11-06T20:32:59.088Z,59.17
2022-11-06T20:35:27.139Z,59.87
2022-11-06T20:37:55.136Z,62.57
2022-11-06T20:40:24.561Z,59.40
2022-11-06T20:42:52.586Z,61.47
2022-11-06T20:45:20.621Z,62.77
2022-11-06T20:47:48.580Z,62.10
2022-11-06T20:50:17.009Z,62.53
2022-11-06T20:52:45.425Z,62.90
2022-11-06T20:55:13.450Z,64.47
2022-11-06T20:57:42.776Z,64.17
2022-11-06T21:00:12.462Z,64.77
2022-11-06T21:02:40.595Z,65.83
2022-11-06T21:05:09.353Z,66.27
2022-11-06T21:07:37.337Z,68.27
2022-11-06T21:10:06.067Z,66.60
2022-11-06T21:12:34.361Z,67.73
2022-11-06T21:15:03.916Z,70.13
2022-11-06T21:17:31.998Z,70.17
2022-11-06T21:20:00.146Z,67.97
2022-11-06T21:22:28.174Z,71.43
2022-11-06T21:24:56.276Z,69.77
2022-11-06T21:27:24.356Z,72.90
2022-11-06T21:29:52.349Z,71.93
2022-11-06T21:32:21.729Z,71.93
2022-11-06T21:34:49.737Z,73.20
2022-11-06T21:37:17.820Z,70.13
2022-11-06T21:39:45.807Z,72.67
2022-11-06T21:42:13.839Z,74.03
2022-11-06T21:44:42.203Z,74.53
2022-11-06T21:47:10.235Z,75.83
2022-11-06T21:49:39.546Z,74.57
2022-11-06T21:52:29.115Z,76.50
2022-11-06T21:55:15.015Z,77.33
2022-11-06T21:57:42.978Z,75.87
2022-11-06T22:00:14.381Z,75.30
2022-11-06T22:02:43.470Z,76.77
2022-11-06T22:05:12.948Z,75.33
2022-11-06T22:07:40.954Z,77.23
2022-11-06T22:10:09.791Z,79.63
2022-11-06T22:12:37.931Z,76.80
2022-11-06T22:15:06.584Z,77.47
2022-11-06T22:17:34.568Z,77.47
2022-11-06T22:20:03.354Z,78.50
2022-11-06T22:22:32.747Z,79.30
2022-11-06T22:25:00.748Z,78.33
2022-11-06T22:27:28.761Z,78.67
2022-11-06T22:29:56.747Z,78.50
2022-11-06T22:32:25.019Z,78.77
2022-11-06T22:34:53.238Z,77.10
2022-11-06T22:37:21.301Z,77.13
2022-11-06T22:39:50.729Z,76.37
2022-11-06T22:42:18.815Z,78.67
2022-11-06T22:44:46.994Z,75.97
2022-11-06T22:47:15.115Z,76.53
2022-11-06T22:49:43.110Z,76.93
2022-11-06T22:52:11.127Z,79.47
2022-11-06T22:54:39.075Z,78.47
2022-11-06T22:57:08.425Z,80.40
2022-11-06T22:59:36.368Z,81.10
2022-11-06T23:02:04.490Z,82.10
2022-11-06T23:04:32.714Z,82.30
2022-11-06T23:07:00.686Z,82.40
2022-11-06T23:09:28.771Z,82.07
2022-11-06T23:11:56.824Z,81.07
2022-11-06T23:14:26.350Z,81.60
2022-11-06T23:17:00.860Z,80.57
2022-11-06T23:19:31.089Z,83.53
2022-11-06T23:22:13.228Z,82.87
2022-11-06T23:24:41.392Z,82.27
2022-11-06T23:27:10.637Z,82.33
2022-11-06T23:29:40.730Z,81.83
2022-11-06T23:32:09.111Z,84.23
2022-11-06T23:34:37.158Z,86.00
2022-11-06T23:37:05.097Z,82.23
2022-11-06T23:39:33.135Z,80.77
2022-11-06T23:42:01.125Z,79.97
2022-11-06T23:44:46.437Z,78.00
2022-11-06T23:47:15.913Z,77.63
2022-11-06T23:49:43.960Z,77.97
2022-11-06T23:52:11.883Z,77.50
2022-11-06T23:54:39.937Z,81.57
2022-11-06T23:57:08.640Z,81.03
2022-11-06T23:59:36.867Z,77.97
